Terminal Aerodrome Forecast
Issued by NWS

Current Version | Previous Version | Graphics & Text | Print | Product List | Glossary On
Versions: 1 2 3 4 5 6 7 8 9 10 11 12 13 14 15 16 17 18 19 20
000
FTUS41 KILN 271100
TAFLCK
TAF
KLCK 271138Z 2712/2812 20008KT 5SM BR BKN015
     FM271300 21010KT P6SM SCT015 BKN025
     FM271700 26012G20KT P6SM -SHRA VCTS BKN035CB
     FM272200 28014G23KT P6SM VCSH BKN040
     FM280100 28010KT P6SM SCT030 BKN250=

USA.gov is the U.S. government's official web portal to all federal, state and local government web resources and services.